Bookmark and Share
Track history (hours):
 

New Jersey Responder

More information available from US FCC via Universal Licensing System and Coast Guard Vessel Documentation Center.

Last reported at 2014-Apr-22 09:28 UTC. Time now 2014-Apr-23 09:12 UTC.
Position N 40°32' W 074°15'.

; draft 4 m.

Type: Pollution control. MMSI: 366594000.

NotesDate/timePositionNaut miles runAvg speedWind from/ knotsBaromVisibWave heightAir tempDewpointWater temp
2014-Apr-22 09:28N 40°32' W 074°15'0 0.0
2014-Apr-22 01:31N 40°32' W 074°15'0 0.0
2014-Apr-21 13:16N 40°32' W 074°15'0 0.0
2014-Apr-21 12:16N 40°32' W 074°15'0 0.0
2014-Apr-21 11:25N 40°32' W 074°15'0 0.0
2014-Apr-21 10:28N 40°32' W 074°15'0 0.0
2014-Apr-21 09:32N 40°32' W 074°15'0 0.0
2014-Apr-21 08:28N 40°32' W 074°15'0 0.0
2014-Apr-21 07:28N 40°32' W 074°15'0 0.0
2014-Apr-21 06:32N 40°32' W 074°15'0 0.0
2014-Apr-21 04:22N 40°32' W 074°15'0 0.0
2014-Apr-19 09:25N 40°32' W 074°15'0 0.0
2014-Apr-19 06:31N 40°32' W 074°15'0 0.0
2014-Apr-18 23:07N 40°32' W 074°15'0 0.0
2014-Apr-18 13:19N 40°32' W 074°15'0 0.0
2014-Apr-18 12:31N 40°32' W 074°15'0 0.0
2014-Apr-18 11:23N 40°32' W 074°15'0 0.0
2014-Apr-18 00:13N 40°32' W 074°15'0 0.0
2014-Apr-17 02:22N 40°32' W 074°15'5 2.0
2014-Apr-17 00:06N 40°30' W 074°10'7 9.3
2014-Apr-16 23:23N 40°34' W 074°02'2 2.3
2014-Apr-16 22:28N 40°36' W 074°01'0 0.0
2014-Apr-16 21:22N 40°36' W 074°01'0 0.0
2014-Apr-16 20:28N 40°36' W 074°01'0 0.0
2014-Apr-16 19:31N 40°36' W 074°01'0 0.0
2014-Apr-16 18:33N 40°36' W 074°01'0 0.2
2014-Apr-16 17:33N 40°35' W 074°01'0 0.0
2014-Apr-16 16:33N 40°35' W 074°01'2 1.9
2014-Apr-16 15:31N 40°34' W 074°02'6 5.3
2014-Apr-16 14:25N 40°30' W 074°08'0 0.3
2014-Apr-16 13:27N 40°30' W 074°08'6 5.3
2014-Apr-16 12:20N 40°32' W 074°15'0 0.0
2014-Apr-16 10:30N 40°32' W 074°15'0 0.0
2014-Apr-15 18:09N 40°32' W 074°15'  
2014-Apr-13 09:23N 40°32' W 074°15'0 0.0
2014-Apr-13 08:32N 40°32' W 074°15'0 0.0
2014-Apr-13 07:32N 40°32' W 074°15'0 0.0
2014-Apr-13 06:14N 40°32' W 074°15'0 0.0
2014-Apr-13 05:26N 40°32' W 074°15'0 0.0
2014-Apr-13 04:32N 40°32' W 074°15'0 0.0
2014-Apr-13 03:08N 40°32' W 074°15'0 0.0
2014-Apr-13 02:17N 40°32' W 074°15'0 0.0
2014-Apr-13 01:32N 40°32' W 074°15'0 0.0
2014-Apr-13 00:32N 40°32' W 074°15'  

Dump ship's entire track history

sailing weather and tide predictions

New Jersey Responder — WBO8578 — position and weather